Time;durP1;ratioP1;P1;durP2;ratioP2;P2;SDS_P1;SDS_P2;PMS_P1;PMS_P2;Temp;Humidity;BMP_temperature;BMP_pressure;BME280_temperature;BME280_humidity;BME280_pressure;Samples;Min_cycle;Max_cycle;Signal;HPM_P1;HPM_P2
2022/01/31 00:02:12;;;;;;;;;;;19.20;58.00;;;;;;5072685;28;1362;-70
2022/01/31 00:04:37;;;;;;;;;;;19.20;58.00;;;;;;5071567;28;1348;-69
2022/01/31 00:07:03;;;;;;;;;;;19.20;58.00;;;;;;5072751;28;1357;-68
2022/01/31 00:09:29;;;;;;;;;;;19.20;58.00;;;;;;5071553;28;1120;-68
2022/01/31 00:12:05;;;;;;;;;;;19.20;58.00;;;;;;5071627;28;1420;-68
2022/01/31 00:16:56;;;;;;;;;;;19.20;58.10;;;;;;5073048;28;1910;-68
2022/01/31 00:19:21;;;;;;;;;;;19.20;58.10;;;;;;5072354;28;1383;-68
2022/01/31 00:21:46;;;;;;;;;;;19.20;58.10;;;;;;5073718;28;1408;-68
2022/01/31 00:24:12;;;;;;;;;;;19.20;58.10;;;;;;5075608;28;1330;-68
2022/01/31 00:26:37;;;;;;;;;;;19.20;58.20;;;;;;5075697;28;1039;-68
2022/01/31 00:29:03;;;;;;;;;;;19.20;58.20;;;;;;5071551;28;1277;-68
2022/01/31 00:31:28;;;;;;;;;;;19.10;58.20;;;;;;5068229;28;1402;-69
2022/01/31 00:33:54;;;;;;;;;;;19.10;58.80;;;;;;5076363;28;1313;-68
2022/01/31 00:36:19;;;;;;;;;;;19.10;58.20;;;;;;5075297;28;1897;-69
2022/01/31 00:38:44;;;;;;;;;;;19.10;58.20;;;;;;5076212;28;1485;-68
2022/01/31 00:41:11;;;;;;;;;;;19.10;58.20;;;;;;5076480;28;1333;-68
2022/01/31 00:43:37;;;;;;;;;;;19.10;58.20;;;;;;5076259;28;1364;-68
2022/01/31 00:46:10;;;;;;;;;;;19.10;58.30;;;;;;5075310;28;1289;-68
2022/01/31 00:48:41;;;;;;;;;;;19.10;58.30;;;;;;5074686;28;1372;-67
2022/01/31 00:51:07;;;;;;;;;;;19.10;58.30;;;;;;5076295;28;1301;-68
2022/01/31 00:53:32;;;;;;;;;;;19.10;58.30;;;;;;5076186;28;1360;-68
2022/01/31 00:55:58;;;;;;;;;;;19.10;58.30;;;;;;5076186;28;1269;-69
2022/01/31 00:58:23;;;;;;;;;;;19.10;58.30;;;;;;5074388;28;1909;-68
2022/01/31 01:00:49;;;;;;;;;;;19.10;58.30;;;;;;5076139;28;1247;-68
2022/01/31 01:03:14;;;;;;;;;;;19.10;58.40;;;;;;5074729;28;1503;-69
2022/01/31 01:05:40;;;;;;;;;;;19.10;58.40;;;;;;5076058;28;1272;-68
2022/01/31 01:08:05;;;;;;;;;;;19.00;58.30;;;;;;5075644;28;1495;-68
2022/01/31 01:10:30;;;;;;;;;;;19.00;58.30;;;;;;5076000;28;1407;-68
2022/01/31 01:12:56;;;;;;;;;;;19.00;58.90;;;;;;5075776;28;1347;-68
2022/01/31 01:15:21;;;;;;;;;;;19.00;58.40;;;;;;5074850;28;1400;-67
2022/01/31 01:17:47;;;;;;;;;;;19.00;58.40;;;;;;5074505;28;1969;-68
2022/01/31 01:20:14;;;;;;;;;;;19.00;58.40;;;;;;5075750;28;1086;-67
2022/01/31 01:22:40;;;;;;;;;;;19.00;58.40;;;;;;5076032;28;1318;-68
2022/01/31 01:25:07;;;;;;;;;;;19.00;58.40;;;;;;5074834;28;1279;-68
2022/01/31 01:27:32;;;;;;;;;;;19.00;58.40;;;;;;5075436;28;1307;-68
2022/01/31 01:29:58;;;;;;;;;;;19.00;58.50;;;;;;5074237;28;1293;-68
2022/01/31 01:32:25;;;;;;;;;;;19.00;58.50;;;;;;5075213;28;1396;-69
2022/01/31 01:34:50;;;;;;;;;;;19.00;58.50;;;;;;5074454;28;1270;-68
2022/01/31 01:37:16;;;;;;;;;;;19.00;58.50;;;;;;5075265;28;1969;-69
2022/01/31 01:39:42;;;;;;;;;;;19.00;58.50;;;;;;5075589;28;1118;-70
2022/01/31 01:42:07;;;;;;;;;;;19.00;58.50;;;;;;5075205;28;1305;-69
2022/01/31 01:44:44;;;;;;;;;;;18.90;58.40;;;;;;5074236;28;1334;-70
2022/01/31 01:47:09;;;;;;;;;;;19.00;58.50;;;;;;5074054;28;1219;-70
2022/01/31 01:49:35;;;;;;;;;;;18.90;58.50;;;;;;5075270;28;1522;-70
2022/01/31 01:52:00;;;;;;;;;;;19.00;58.50;;;;;;5074390;28;1327;-70
2022/01/31 01:54:26;;;;;;;;;;;19.00;58.50;;;;;;5073953;28;1338;-67
2022/01/31 01:56:51;;;;;;;;;;;19.00;58.60;;;;;;5075378;28;1874;-68
2022/01/31 01:59:17;;;;;;;;;;;18.90;58.50;;;;;;5074747;28;1317;-68
2022/01/31 02:01:42;;;;;;;;;;;18.90;58.50;;;;;;5075100;28;1310;-67
2022/01/31 02:04:07;;;;;;;;;;;18.90;58.50;;;;;;5073613;28;1091;-67
2022/01/31 02:06:33;;;;;;;;;;;18.90;58.50;;;;;;5073401;28;1396;-68
2022/01/31 02:08:58;;;;;;;;;;;18.90;58.50;;;;;;5074701;28;1293;-68
2022/01/31 02:11:24;;;;;;;;;;;18.90;58.60;;;;;;5075001;28;1324;-68
2022/01/31 02:13:49;;;;;;;;;;;18.90;58.60;;;;;;5074901;28;1318;-68
2022/01/31 02:16:16;;;;;;;;;;;18.90;58.60;;;;;;5074561;28;1941;-67
2022/01/31 02:18:48;;;;;;;;;;;18.90;58.60;;;;;;5074506;28;1325;-68
2022/01/31 02:21:14;;;;;;;;;;;18.90;58.60;;;;;;5074625;28;1015;-68
2022/01/31 02:23:39;;;;;;;;;;;18.90;58.60;;;;;;5074187;28;1415;-69
2022/01/31 02:26:05;;;;;;;;;;;18.90;58.60;;;;;;5074625;28;1070;-68
2022/01/31 02:28:31;;;;;;;;;;;18.90;58.60;;;;;;5073091;28;1085;-68
2022/01/31 02:30:57;;;;;;;;;;;18.90;58.60;;;;;;5073503;28;1427;-70
2022/01/31 02:33:22;;;;;;;;;;;18.90;58.60;;;;;;5074520;28;1349;-70
2022/01/31 02:35:48;;;;;;;;;;;18.90;58.70;;;;;;5073213;28;1190;-69
2022/01/31 02:38:14;;;;;;;;;;;18.90;58.70;;;;;;5072473;28;1965;-69
2022/01/31 02:40:39;;;;;;;;;;;18.80;58.70;;;;;;5073160;28;1422;-69
2022/01/31 02:43:05;;;;;;;;;;;18.90;58.70;;;;;;5072816;28;1372;-70
2022/01/31 02:45:30;;;;;;;;;;;18.80;58.70;;;;;;5073979;28;1348;-69
2022/01/31 02:47:58;;;;;;;;;;;18.90;58.70;;;;;;5072575;28;1274;-69
2022/01/31 02:50:24;;;;;;;;;;;18.90;58.60;;;;;;5074108;28;1077;-68
2022/01/31 02:52:59;;;;;;;;;;;18.90;58.50;;;;;;5072889;28;1364;-68
2022/01/31 02:55:25;;;;;;;;;;;19.00;58.50;;;;;;5074154;28;1031;-67
2022/01/31 02:57:50;;;;;;;;;;;19.10;58.50;;;;;;5073650;28;1897;-67
2022/01/31 03:00:16;;;;;;;;;;;19.10;58.30;;;;;;5072786;28;1320;-70
2022/01/31 03:02:41;;;;;;;;;;;19.20;58.20;;;;;;5073744;28;1455;-70
2022/01/31 03:05:07;;;;;;;;;;;19.30;58.00;;;;;;5073852;28;1328;-70
2022/01/31 03:07:34;;;;;;;;;;;19.50;57.80;;;;;;5073476;28;1106;-70
2022/01/31 03:09:59;;;;;;;;;;;19.60;57.50;;;;;;5073739;28;1035;-70
2022/01/31 03:12:25;;;;;;;;;;;19.80;57.30;;;;;;5073630;28;1399;-69
2022/01/31 03:14:50;;;;;;;;;;;19.90;56.90;;;;;;5072555;28;1258;-70
2022/01/31 03:17:16;;;;;;;;;;;20.00;56.60;;;;;;5073121;28;1897;-70
2022/01/31 03:19:42;;;;;;;;;;;20.20;56.40;;;;;;5069713;28;1295;-70
2022/01/31 03:22:08;;;;;;;;;;;20.30;56.10;;;;;;5064912;28;1281;-70
2022/01/31 03:24:33;;;;;;;;;;;20.40;55.90;;;;;;5073635;28;1051;-70
2022/01/31 03:26:59;;;;;;;;;;;20.50;55.60;;;;;;5072476;28;1399;-69
2022/01/31 03:29:24;;;;;;;;;;;20.60;55.30;;;;;;5065491;28;1244;-70
2022/01/31 03:31:50;;;;;;;;;;;20.70;55.10;;;;;;5066202;28;1327;-69
2022/01/31 03:34:15;;;;;;;;;;;20.70;54.80;;;;;;5071944;28;1204;-70
2022/01/31 03:36:42;;;;;;;;;;;20.80;54.60;;;;;;5073141;28;1902;-70
2022/01/31 03:39:08;;;;;;;;;;;20.90;54.50;;;;;;5071832;28;1067;-68
2022/01/31 03:41:33;;;;;;;;;;;21.00;54.40;;;;;;5073152;28;1404;-70
2022/01/31 03:43:59;;;;;;;;;;;21.00;54.20;;;;;;5071787;28;1314;-69
2022/01/31 03:46:24;;;;;;;;;;;21.00;54.10;;;;;;5073479;28;1359;-70
2022/01/31 03:48:50;;;;;;;;;;;21.10;54.00;;;;;;5072875;28;1282;-71
2022/01/31 03:51:15;;;;;;;;;;;21.10;53.90;;;;;;5054922;28;1307;-70
2022/01/31 03:53:41;;;;;;;;;;;21.10;53.80;;;;;;5073203;28;1439;-70
2022/01/31 03:56:06;;;;;;;;;;;21.20;53.80;;;;;;5072427;28;1332;-71
2022/01/31 03:58:31;;;;;;;;;;;21.20;53.80;;;;;;5071638;28;1960;-70
2022/01/31 04:00:57;;;;;;;;;;;21.20;53.80;;;;;;5073043;28;1055;-70
2022/01/31 04:03:22;;;;;;;;;;;21.20;53.80;;;;;;5071781;28;1643;-70
2022/01/31 04:05:48;;;;;;;;;;;21.20;53.80;;;;;;5073546;28;1130;-70
2022/01/31 04:08:13;;;;;;;;;;;21.20;53.80;;;;;;5072605;28;1063;-69
2022/01/31 04:10:39;;;;;;;;;;;21.20;53.80;;;;;;5071843;28;1479;-71
2022/01/31 04:13:06;;;;;;;;;;;21.20;53.90;;;;;;5071736;28;1202;-69
2022/01/31 04:15:32;;;;;;;;;;;21.20;53.90;;;;;;5071751;28;1313;-70
2022/01/31 04:17:57;;;;;;;;;;;21.20;54.00;;;;;;5072867;28;1992;-70
2022/01/31 04:20:23;;;;;;;;;;;21.20;53.90;;;;;;5071386;28;1286;-70
2022/01/31 04:23:12;;;;;;;;;;;21.20;53.90;;;;;;5085316;22;2329;-67
2022/01/31 04:25:46;;;;;;;;;;;21.20;53.90;;;;;;5072271;28;1177;-68
2022/01/31 04:28:33;;;;;;;;;;;21.10;53.90;;;;;;5071499;28;1657;-67
2022/01/31 04:31:14;;;;;;;;;;;21.10;53.90;;;;;;5058972;28;1004;-66
2022/01/31 04:33:39;;;;;;;;;;;21.10;54.00;;;;;;5064644;28;1420;-67
2022/01/31 04:36:05;;;;;;;;;;;21.10;54.00;;;;;;5051399;28;1154;-67
2022/01/31 04:38:30;;;;;;;;;;;21.00;54.00;;;;;;5050954;28;1902;-67
2022/01/31 04:40:56;;;;;;;;;;;21.10;54.10;;;;;;5051683;28;1141;-67
2022/01/31 04:43:21;;;;;;;;;;;21.10;54.10;;;;;;5052109;28;1402;-67
2022/01/31 04:45:48;;;;;;;;;;;21.00;54.20;;;;;;5052635;28;1156;-67
2022/01/31 04:48:14;;;;;;;;;;;21.00;54.20;;;;;;5050982;28;1082;-67
2022/01/31 04:50:39;;;;;;;;;;;21.00;54.20;;;;;;5034768;28;1313;-67
2022/01/31 04:53:05;;;;;;;;;;;21.00;54.30;;;;;;5051276;28;1349;-67
2022/01/31 04:55:30;;;;;;;;;;;21.00;54.40;;;;;;5052420;28;1063;-67
2022/01/31 04:57:57;;;;;;;;;;;20.90;54.40;;;;;;5052516;28;1944;-66
2022/01/31 05:00:22;;;;;;;;;;;20.90;54.50;;;;;;5051234;28;1106;-67
2022/01/31 05:02:48;;;;;;;;;;;20.90;54.50;;;;;;5052254;28;1557;-67
2022/01/31 05:05:13;;;;;;;;;;;20.90;54.60;;;;;;5052277;28;1122;-67
2022/01/31 05:07:39;;;;;;;;;;;20.80;54.60;;;;;;5052564;28;1178;-67
2022/01/31 05:10:04;;;;;;;;;;;20.80;54.60;;;;;;5054844;28;1351;-67
2022/01/31 05:12:30;;;;;;;;;;;20.80;54.60;;;;;;5055678;28;1265;-67
2022/01/31 05:14:55;;;;;;;;;;;20.80;54.60;;;;;;5055917;28;1107;-67
2022/01/31 05:17:21;;;;;;;;;;;20.80;54.60;;;;;;5055621;28;1898;-67
2022/01/31 05:19:46;;;;;;;;;;;20.80;54.70;;;;;;5055758;28;1122;-66
2022/01/31 05:22:11;;;;;;;;;;;20.80;54.70;;;;;;5055615;28;1383;-67
2022/01/31 05:24:37;;;;;;;;;;;20.70;54.70;;;;;;5055777;28;1114;-68
2022/01/31 05:27:02;;;;;;;;;;;20.70;54.80;;;;;;5055280;28;1172;-67
2022/01/31 05:29:28;;;;;;;;;;;20.70;54.80;;;;;;5055884;28;1087;-67
2022/01/31 05:31:53;;;;;;;;;;;20.70;54.80;;;;;;5055353;28;1107;-67
2022/01/31 05:34:19;;;;;;;;;;;20.70;54.90;;;;;;5055530;28;1217;-67
2022/01/31 05:36:45;;;;;;;;;;;20.70;54.90;;;;;;5054306;28;1902;-67
2022/01/31 05:39:11;;;;;;;;;;;20.70;55.00;;;;;;5054070;28;1451;-67
2022/01/31 05:41:36;;;;;;;;;;;20.60;55.00;;;;;;5037173;28;1131;-68
2022/01/31 05:44:02;;;;;;;;;;;20.70;55.00;;;;;;5037510;28;1445;-68
2022/01/31 05:46:27;;;;;;;;;;;20.60;55.00;;;;;;5055530;28;1086;-67
2022/01/31 05:48:53;;;;;;;;;;;20.60;55.00;;;;;;5055148;28;1083;-67
2022/01/31 05:51:19;;;;;;;;;;;20.60;55.10;;;;;;5055181;28;1051;-67
2022/01/31 05:53:44;;;;;;;;;;;20.60;55.10;;;;;;5055152;28;1216;-67
2022/01/31 05:56:10;;;;;;;;;;;20.60;55.20;;;;;;5054939;28;1157;-67
2022/01/31 05:58:36;;;;;;;;;;;20.60;55.20;;;;;;5053578;28;1898;-67
2022/01/31 06:01:01;;;;;;;;;;;20.60;55.20;;;;;;5053908;28;1355;-67
2022/01/31 06:03:27;;;;;;;;;;;20.60;55.30;;;;;;5037041;28;1556;-67
2022/01/31 06:05:52;;;;;;;;;;;20.60;55.30;;;;;;5054964;28;1186;-67
2022/01/31 06:08:18;;;;;;;;;;;20.50;55.30;;;;;;5054618;28;1404;-66
2022/01/31 06:10:45;;;;;;;;;;;20.50;55.30;;;;;;5054676;28;1107;-67
2022/01/31 06:13:11;;;;;;;;;;;20.50;55.40;;;;;;5054801;28;1296;-67
2022/01/31 06:15:36;;;;;;;;;;;20.50;55.40;;;;;;5054777;28;1031;-66
2022/01/31 06:18:02;;;;;;;;;;;20.40;55.40;;;;;;5054174;28;1898;-68
2022/01/31 06:20:27;;;;;;;;;;;20.50;55.50;;;;;;5052881;28;1071;-67
2022/01/31 06:22:53;;;;;;;;;;;20.50;55.50;;;;;;5036640;28;1341;-66
2022/01/31 06:25:18;;;;;;;;;;;20.40;55.50;;;;;;5053238;28;1297;-68
2022/01/31 06:27:44;;;;;;;;;;;20.40;56.10;;;;;;5053249;28;1191;-67
2022/01/31 06:30:10;;;;;;;;;;;20.40;55.50;;;;;;5053389;28;1240;-68
2022/01/31 06:32:36;;;;;;;;;;;20.40;55.50;;;;;;5054485;28;1369;-67
2022/01/31 06:35:01;;;;;;;;;;;20.40;55.60;;;;;;5053037;28;1084;-67
2022/01/31 06:37:26;;;;;;;;;;;20.40;55.60;;;;;;5054500;28;1910;-68
2022/01/31 06:39:52;;;;;;;;;;;20.40;55.60;;;;;;5054055;28;1432;-67
2022/01/31 06:42:17;;;;;;;;;;;20.40;55.60;;;;;;5052916;28;1334;-67
2022/01/31 06:44:43;;;;;;;;;;;20.30;55.60;;;;;;5053375;28;1111;-68
2022/01/31 06:47:08;;;;;;;;;;;20.40;55.60;;;;;;5054259;28;1194;-67
2022/01/31 06:49:33;;;;;;;;;;;20.30;55.60;;;;;;5052801;28;1378;-66
2022/01/31 06:51:59;;;;;;;;;;;20.30;55.60;;;;;;5053967;28;1259;-67
2022/01/31 06:54:24;;;;;;;;;;;20.30;55.70;;;;;;5052740;28;1103;-67
2022/01/31 06:56:50;;;;;;;;;;;20.30;55.70;;;;;;5053754;28;1894;-67
2022/01/31 06:59:15;;;;;;;;;;;20.30;55.70;;;;;;5053688;28;1094;-67
2022/01/31 07:01:41;;;;;;;;;;;20.30;55.50;;;;;;5053795;28;1103;-68
2022/01/31 07:04:06;;;;;;;;;;;20.30;54.10;;;;;;5047090;28;1855;-69
2022/01/31 07:06:32;;;;;;;;;;;20.20;51.90;;;;;;5067138;28;1099;-71
2022/01/31 07:08:59;;;;;;;;;;;20.20;51.70;;;;;;5047209;28;1196;-70
2022/01/31 07:11:27;;;;;;;;;;;20.20;51.90;;;;;;5053754;28;1436;-68
2022/01/31 07:14:06;;;;;;;;;;;20.10;52.20;;;;;;5052274;28;1379;-67
2022/01/31 07:16:31;;;;;;;;;;;20.10;52.40;;;;;;5052572;28;1906;-68
2022/01/31 07:19:03;;;;;;;;;;;20.10;52.70;;;;;;5052276;28;1273;-69
2022/01/31 07:21:36;;;;;;;;;;;20.10;52.80;;;;;;5053320;28;1408;-69
2022/01/31 07:24:06;;;;;;;;;;;20.10;53.00;;;;;;5053139;28;1372;-69
2022/01/31 07:26:31;;;;;;;;;;;20.10;53.10;;;;;;5053424;28;1066;-70
2022/01/31 07:28:57;;;;;;;;;;;20.10;53.20;;;;;;5053042;28;1357;-70
2022/01/31 07:31:22;;;;;;;;;;;20.10;53.40;;;;;;5053326;28;1289;-70
2022/01/31 07:33:48;;;;;;;;;;;20.10;53.50;;;;;;5052917;28;1314;-68
2022/01/31 07:36:13;;;;;;;;;;;20.10;53.60;;;;;;5053049;28;1075;-67
2022/01/31 07:38:40;;;;;;;;;;;20.10;53.70;;;;;;5051513;28;1906;-67
2022/01/31 07:41:06;;;;;;;;;;;20.10;53.80;;;;;;5051725;28;1405;-68
2022/01/31 07:43:33;;;;;;;;;;;20.10;53.90;;;;;;5053060;28;1392;-68
2022/01/31 07:45:59;;;;;;;;;;;20.10;54.00;;;;;;5053095;28;1070;-67
2022/01/31 07:48:28;;;;;;;;;;;20.10;54.10;;;;;;5052889;28;1122;-67
2022/01/31 07:50:54;;;;;;;;;;;20.10;54.20;;;;;;5052678;28;1288;-68
2022/01/31 07:53:19;;;;;;;;;;;20.10;54.30;;;;;;5052999;28;1303;-67
2022/01/31 07:55:45;;;;;;;;;;;20.20;54.30;;;;;;5052892;28;1066;-67
2022/01/31 07:58:10;;;;;;;;;;;20.20;54.30;;;;;;5052481;28;1959;-67
2022/01/31 08:00:35;;;;;;;;;;;20.30;54.30;;;;;;5052875;28;1410;-67
2022/01/31 08:03:01;;;;;;;;;;;20.40;54.20;;;;;;5052834;28;1386;-67
2022/01/31 08:05:26;;;;;;;;;;;20.50;54.10;;;;;;5051772;28;1059;-68
2022/01/31 08:07:52;;;;;;;;;;;20.60;53.90;;;;;;5052745;28;1323;-66
2022/01/31 08:10:17;;;;;;;;;;;20.70;53.80;;;;;;5052693;28;1382;-66
2022/01/31 08:12:44;;;;;;;;;;;20.80;53.60;;;;;;5050545;28;1943;-67
2022/01/31 08:15:15;;;;;;;;;;;20.90;53.40;;;;;;5052721;28;1150;-66
2022/01/31 08:17:40;;;;;;;;;;;20.90;53.20;;;;;;5046587;28;1898;-66
2022/01/31 08:20:06;;;;;;;;;;;21.00;53.20;;;;;;5043860;28;1096;-67
2022/01/31 08:22:31;;;;;;;;;;;21.10;53.10;;;;;;5051225;28;1319;-67
2022/01/31 08:24:56;;;;;;;;;;;21.10;53.00;;;;;;5052760;28;1047;-66
2022/01/31 08:27:22;;;;;;;;;;;21.10;52.90;;;;;;5039222;28;1135;-66
2022/01/31 08:29:48;;;;;;;;;;;21.20;52.90;;;;;;5052815;28;1271;-66
2022/01/31 08:32:21;;;;;;;;;;;21.20;52.90;;;;;;5052588;28;1371;-66
2022/01/31 08:37:31;;;;;;;;;;;21.20;52.80;;;;;;5052336;28;1910;-67
2022/01/31 08:39:57;;;;;;;;;;;21.20;52.80;;;;;;5052422;28;1063;-66
2022/01/31 08:42:22;;;;;;;;;;;21.20;52.80;;;;;;5052593;28;1314;-68
2022/01/31 08:44:48;;;;;;;;;;;21.20;52.70;;;;;;5056362;28;1103;-67
2022/01/31 08:47:13;;;;;;;;;;;21.20;52.70;;;;;;5056262;28;1107;-66
2022/01/31 08:49:38;;;;;;;;;;;21.20;52.80;;;;;;5056319;28;1277;-67
2022/01/31 08:52:04;;;;;;;;;;;21.20;52.80;;;;;;5049227;28;1282;-65
2022/01/31 08:54:29;;;;;;;;;;;21.20;52.80;;;;;;5049765;28;1064;-66
2022/01/31 08:56:55;;;;;;;;;;;21.20;52.90;;;;;;5043265;28;1959;-66
2022/01/31 08:59:24;;;;;;;;;;;21.20;52.90;;;;;;5071609;28;1272;-66
2022/01/31 09:01:54;;;;;;;;;;;21.20;53.00;;;;;;5056121;28;1138;-67
2022/01/31 09:04:34;;;;;;;;;;;21.10;53.60;;;;;;5056106;28;1324;-67
2022/01/31 09:07:00;;;;;;;;;;;21.10;53.10;;;;;;5055997;28;1055;-66
2022/01/31 09:09:26;;;;;;;;;;;21.10;53.10;;;;;;5042895;28;1144;-67
2022/01/31 09:11:51;;;;;;;;;;;21.10;53.20;;;;;;5056057;28;874;-68
2022/01/31 09:14:16;;;;;;;;;;;21.10;53.30;;;;;;5042257;28;1294;-67
2022/01/31 09:16:43;;;;;;;;;;;21.10;53.40;;;;;;5055765;28;1957;-67
2022/01/31 09:19:09;;;;;;;;;;;21.10;53.40;;;;;;5070939;28;1349;-67
2022/01/31 09:21:35;;;;;;;;;;;21.00;53.40;;;;;;5054569;28;1333;-67
2022/01/31 09:24:01;;;;;;;;;;;21.00;53.40;;;;;;5055737;28;1219;-66
2022/01/31 09:26:27;;;;;;;;;;;21.00;53.50;;;;;;5070969;28;1285;-67
2022/01/31 09:28:52;;;;;;;;;;;21.00;53.50;;;;;;5055293;28;1247;-67
2022/01/31 09:31:18;;;;;;;;;;;21.00;53.60;;;;;;5070831;28;1352;-68
2022/01/31 09:33:43;;;;;;;;;;;21.00;53.60;;;;;;5052538;28;1292;-67
2022/01/31 09:36:09;;;;;;;;;;;20.90;53.60;;;;;;5054218;28;1369;-67
2022/01/31 09:38:34;;;;;;;;;;;20.90;53.70;;;;;;5055080;28;1906;-67
2022/01/31 09:40:59;;;;;;;;;;;20.90;53.70;;;;;;5037527;28;1319;-67
2022/01/31 09:44:05;;;;;;;;;;;20.90;53.70;;;;;;5055376;28;1300;-67
2022/01/31 09:48:51;;;;;;;;;;;20.90;53.80;;;;;;5055413;28;1015;-67
2022/01/31 09:51:20;;;;;;;;;;;20.90;53.90;;;;;;5054993;28;1322;-67
2022/01/31 09:53:46;;;;;;;;;;;20.90;53.90;;;;;;5054870;28;1341;-67
2022/01/31 09:56:13;;;;;;;;;;;20.80;53.90;;;;;;5053978;28;1083;-67
2022/01/31 09:58:39;;;;;;;;;;;20.80;54.00;;;;;;5052130;28;2513;-67
2022/01/31 10:01:08;;;;;;;;;;;20.80;54.00;;;;;;5066048;28;2165;-67
2022/01/31 10:03:43;;;;;;;;;;;20.80;54.10;;;;;;5053387;28;1581;-67
2022/01/31 10:06:16;;;;;;;;;;;20.80;54.10;;;;;;5052828;28;1276;-67
2022/01/31 10:08:41;;;;;;;;;;;20.70;54.20;;;;;;5052752;28;1483;-67
2022/01/31 10:11:11;;;;;;;;;;;20.70;54.20;;;;;;5053418;28;1087;-67
2022/01/31 10:16:26;;;;;;;;;;;20.70;54.30;;;;;;5046992;28;2066;-67
2022/01/31 10:19:05;;;;;;;;;;;20.70;54.40;;;;;;5048174;28;1645;-67
2022/01/31 10:21:31;;;;;;;;;;;20.70;54.40;;;;;;5052612;28;1310;-67
2022/01/31 10:23:56;;;;;;;;;;;20.60;54.40;;;;;;5051337;28;1359;-68
2022/01/31 10:26:31;;;;;;;;;;;20.60;54.50;;;;;;5054581;28;1221;-67
2022/01/31 10:29:09;;;;;;;;;;;20.60;54.50;;;;;;5054399;28;1254;-67
2022/01/31 10:31:35;;;;;;;;;;;20.60;54.50;;;;;;5069950;28;1285;-68
2022/01/31 10:34:19;;;;;;;;;;;20.60;54.50;;;;;;5050363;28;1426;-69
2022/01/31 10:36:45;;;;;;;;;;;20.60;54.50;;;;;;5048950;28;1969;-69
2022/01/31 12:28:25;;;;;;;;;;;20.80;54.00;;;;;;5078395;28;1153;-69
2022/01/31 12:30:50;;;;;;;;;;;20.80;54.00;;;;;;5059377;28;1223;-71
2022/01/31 12:33:36;;;;;;;;;;;20.80;54.00;;;;;;5071095;28;1071;-68
2022/01/31 12:36:01;;;;;;;;;;;20.80;54.00;;;;;;5051720;28;1343;-68
2022/01/31 12:38:30;;;;;;;;;;;20.80;54.00;;;;;;5052352;28;1963;-70
2022/01/31 12:41:01;;;;;;;;;;;20.90;54.20;;;;;;5060137;28;1069;-69
2022/01/31 12:43:51;;;;;;;;;;;20.90;54.00;;;;;;5057137;28;1447;-67
2022/01/31 12:46:17;;;;;;;;;;;20.90;54.00;;;;;;5072232;28;1295;-67
2022/01/31 12:48:43;;;;;;;;;;;20.90;53.90;;;;;;5060811;28;1150;-71
2022/01/31 12:51:14;;;;;;;;;;;20.90;53.90;;;;;;5043761;28;1438;-69
2022/01/31 12:53:45;;;;;;;;;;;20.90;53.80;;;;;;5051172;28;984;-71
2022/01/31 12:56:23;;;;;;;;;;;20.90;53.80;;;;;;5050878;28;1288;-70
2022/01/31 12:59:07;;;;;;;;;;;20.90;53.80;;;;;;5032750;28;1890;-68
2022/01/31 13:01:36;;;;;;;;;;;20.90;53.70;;;;;;5062537;28;1939;-68
2022/01/31 13:04:06;;;;;;;;;;;20.90;53.70;;;;;;5068654;28;1272;-69
2022/01/31 13:06:31;;;;;;;;;;;21.00;53.80;;;;;;5050655;28;1306;-69
2022/01/31 13:08:57;;;;;;;;;;;20.90;53.70;;;;;;5064119;28;1098;-69
2022/01/31 13:11:23;;;;;;;;;;;20.90;53.80;;;;;;5057409;28;1312;-68
2022/01/31 13:13:48;;;;;;;;;;;20.90;53.80;;;;;;5071260;28;1059;-69
2022/01/31 13:16:14;;;;;;;;;;;20.90;53.80;;;;;;5069501;28;1383;-67
2022/01/31 13:18:40;;;;;;;;;;;20.90;53.80;;;;;;5071555;28;1898;-67
2022/01/31 13:21:06;;;;;;;;;;;20.90;53.90;;;;;;5070870;28;1294;-67
2022/01/31 13:23:32;;;;;;;;;;;20.90;53.90;;;;;;5059156;28;1141;-67
2022/01/31 13:25:58;;;;;;;;;;;20.90;53.90;;;;;;5049756;28;1302;-67
2022/01/31 13:28:24;;;;;;;;;;;20.90;54.00;;;;;;5052406;28;1380;-68
2022/01/31 13:30:49;;;;;;;;;;;20.90;54.00;;;;;;5073452;28;1216;-69
2022/01/31 13:33:15;;;;;;;;;;;20.90;54.00;;;;;;5073433;28;1065;-69
2022/01/31 13:35:40;;;;;;;;;;;20.80;54.00;;;;;;5065659;28;1334;-69
2022/01/31 13:38:08;;;;;;;;;;;20.80;54.00;;;;;;5054511;28;1898;-69
2022/01/31 13:40:45;;;;;;;;;;;20.80;54.00;;;;;;5054024;28;1170;-72
2022/01/31 13:43:12;;;;;;;;;;;20.80;54.00;;;;;;5053193;28;1312;-68
2022/01/31 13:45:45;;;;;;;;;;;20.80;54.10;;;;;;5054008;28;1296;-68
2022/01/31 13:48:34;;;;;;;;;;;20.80;54.10;;;;;;5053264;28;1432;-67
2022/01/31 13:51:02;;;;;;;;;;;20.80;54.10;;;;;;5054886;28;1277;-66
2022/01/31 13:53:34;;;;;;;;;;;20.80;54.20;;;;;;5054369;28;1367;-67
2022/01/31 13:56:00;;;;;;;;;;;20.70;54.10;;;;;;5052954;28;1270;-67
2022/01/31 13:58:26;;;;;;;;;;;20.70;54.20;;;;;;5052302;28;1898;-67
2022/01/31 14:00:51;;;;;;;;;;;20.70;54.20;;;;;;5054310;28;1120;-68
2022/01/31 14:03:18;;;;;;;;;;;20.70;54.30;;;;;;5053373;28;1449;-67
2022/01/31 14:05:52;;;;;;;;;;;20.70;54.30;;;;;;5053910;28;1338;-67
2022/01/31 14:08:19;;;;;;;;;;;20.70;54.40;;;;;;5062510;28;1059;-67
2022/01/31 14:10:44;;;;;;;;;;;20.70;54.40;;;;;;5058127;28;1450;-68
2022/01/31 14:13:11;;;;;;;;;;;20.60;54.40;;;;;;5053146;28;1303;-67
2022/01/31 14:15:41;;;;;;;;;;;20.70;54.50;;;;;;5053987;28;1294;-68
2022/01/31 14:18:07;;;;;;;;;;;20.70;54.50;;;;;;5064940;28;1949;-68
2022/01/31 14:20:32;;;;;;;;;;;20.60;54.50;;;;;;5068182;28;1383;-67
2022/01/31 14:22:58;;;;;;;;;;;20.60;54.50;;;;;;5074290;28;1317;-68
2022/01/31 14:25:24;;;;;;;;;;;20.60;54.50;;;;;;5073615;28;1816;-68
2022/01/31 14:27:52;;;;;;;;;;;20.60;54.50;;;;;;5072875;28;1409;-68
2022/01/31 14:30:21;;;;;;;;;;;20.60;54.60;;;;;;5073607;28;1356;-66
2022/01/31 14:33:05;;;;;;;;;;;20.60;54.60;;;;;;5073979;28;1081;-65
2022/01/31 14:35:31;;;;;;;;;;;20.60;54.60;;;;;;5066562;28;1221;-66
2022/01/31 14:37:57;;;;;;;;;;;20.60;54.70;;;;;;5053137;28;1894;-66
2022/01/31 14:40:51;;;;;;;;;;;20.60;54.70;;;;;;5052265;28;1131;-66
2022/01/31 14:47:13;;;;;;;;;;;20.60;54.70;;;;;;5054135;28;1379;-66
2022/01/31 14:48:56;;;;;;;;;;;20.50;54.80;;;;;;5054165;28;1070;-66
2022/01/31 14:51:22;;;;;;;;;;;20.50;54.80;;;;;;5052871;28;1406;-66
2022/01/31 14:53:54;;;;;;;;;;;20.50;54.80;;;;;;5061184;28;1087;-66
2022/01/31 14:56:19;;;;;;;;;;;20.50;54.90;;;;;;5057378;28;1372;-67
2022/01/31 14:58:45;;;;;;;;;;;20.40;54.90;;;;;;5053828;28;1898;-66
2022/01/31 15:01:10;;;;;;;;;;;20.40;54.90;;;;;;5052811;28;1268;-66
2022/01/31 15:03:37;;;;;;;;;;;20.40;54.90;;;;;;5054043;28;1299;-66
2022/01/31 15:06:02;;;;;;;;;;;20.40;54.90;;;;;;5052715;28;1236;-67
2022/01/31 15:08:27;;;;;;;;;;;20.40;55.00;;;;;;5053666;28;1374;-67
2022/01/31 15:10:55;;;;;;;;;;;20.40;55.00;;;;;;5053519;28;1319;-67
2022/01/31 15:13:21;;;;;;;;;;;20.40;55.00;;;;;;5053888;28;1035;-66
2022/01/31 15:15:51;;;;;;;;;;;20.40;55.00;;;;;;5053633;28;1428;-67
2022/01/31 15:18:17;;;;;;;;;;;20.40;55.00;;;;;;5053599;28;1961;-66
2022/01/31 15:20:42;;;;;;;;;;;20.40;55.00;;;;;;5053592;28;1336;-66
2022/01/31 15:23:07;;;;;;;;;;;20.40;55.00;;;;;;5053302;28;1402;-68
2022/01/31 15:25:34;;;;;;;;;;;20.40;55.00;;;;;;5053150;28;1329;-66
2022/01/31 15:28:00;;;;;;;;;;;20.40;55.00;;;;;;5053478;28;1930;-66
2022/01/31 15:30:26;;;;;;;;;;;20.40;55.00;;;;;;5069354;28;1098;-67
2022/01/31 15:32:51;;;;;;;;;;;20.40;55.00;;;;;;5072177;28;1681;-67
2022/01/31 15:35:17;;;;;;;;;;;20.40;55.00;;;;;;5067111;28;1742;-66
2022/01/31 15:37:43;;;;;;;;;;;20.40;55.10;;;;;;5052858;28;1961;-66
2022/01/31 15:40:08;;;;;;;;;;;20.40;55.10;;;;;;5051805;28;1335;-66
2022/01/31 15:42:34;;;;;;;;;;;20.30;55.10;;;;;;5053078;28;1391;-67
2022/01/31 15:45:03;;;;;;;;;;;20.30;55.10;;;;;;5053156;28;1336;-66
2022/01/31 15:47:29;;;;;;;;;;;20.30;55.20;;;;;;5052920;28;1388;-67
2022/01/31 15:49:54;;;;;;;;;;;20.30;55.20;;;;;;5051878;28;1332;-66
2022/01/31 15:52:20;;;;;;;;;;;20.30;55.20;;;;;;5052771;28;1336;-66
2022/01/31 15:54:46;;;;;;;;;;;20.30;55.30;;;;;;5052065;28;1000;-66
2022/01/31 15:57:11;;;;;;;;;;;20.30;55.30;;;;;;5052565;28;1898;-67
2022/01/31 15:59:36;;;;;;;;;;;20.30;55.30;;;;;;5051794;28;1326;-66
2022/01/31 16:02:04;;;;;;;;;;;20.30;55.30;;;;;;5052880;28;1399;-66
2022/01/31 16:04:29;;;;;;;;;;;20.30;55.30;;;;;;5051879;28;1339;-66
2022/01/31 16:06:55;;;;;;;;;;;20.30;55.30;;;;;;5052451;28;1265;-67
2022/01/31 16:09:20;;;;;;;;;;;20.30;55.30;;;;;;5052785;28;1321;-66
2022/01/31 16:11:52;;;;;;;;;;;20.30;55.30;;;;;;5053039;28;1364;-67
2022/01/31 16:14:18;;;;;;;;;;;20.20;55.30;;;;;;5053093;28;1130;-66
2022/01/31 16:16:43;;;;;;;;;;;20.20;55.30;;;;;;5052384;28;1963;-68
2022/01/31 16:19:09;;;;;;;;;;;20.20;55.30;;;;;;5052849;28;1438;-66
2022/01/31 16:21:34;;;;;;;;;;;20.20;55.30;;;;;;5052532;28;1675;-66
2022/01/31 16:24:00;;;;;;;;;;;20.20;55.30;;;;;;5051446;28;1265;-67
2022/01/31 16:26:25;;;;;;;;;;;20.20;55.30;;;;;;5052471;28;1311;-66
2022/01/31 16:28:52;;;;;;;;;;;20.20;55.30;;;;;;5055960;28;1195;-66
2022/01/31 16:31:17;;;;;;;;;;;20.20;55.30;;;;;;5071507;28;1333;-66
2022/01/31 16:33:43;;;;;;;;;;;20.20;55.30;;;;;;5069549;28;1297;-66